Nordic Harrier — V7VH2 — position and weather

sailwx.info

Track history (hours):
 
Tides and Currents Weather Stations Pressure Air Temp Water Temp Dewpoint Dewpoint Depression Visibility Wind Speed Wind Dir Waves Ship Positions

Nordic Harrier

Last reported at 2017-Mar-24 21:28 UTC. Time now 2017-Mar-26 23:08 UTC.
Position N 31°36' E 121°27'.

Length 274 m; draft 6.5 m.

Type: Ship. MMSI: 538004121.

Date/timePositionNaut miles runAvg speedWind from/ knotsBaromVisibWave heightAir tempDewpointWater temp
2017-Mar-24 21:28N 31°36' E 121°27'0 0.0
2017-Mar-24 20:31N 31°36' E 121°27'0 0.0
2017-Mar-24 19:28N 31°36' E 121°27'0 0.0
2017-Mar-24 18:28N 31°36' E 121°27'0 0.0
2017-Mar-24 17:28N 31°36' E 121°27'0 0.0
2017-Mar-24 16:28N 31°36' E 121°27'0 0.0
2017-Mar-24 15:28N 31°36' E 121°27'0 0.0
2017-Mar-24 14:28N 31°36' E 121°27'0 0.0
2017-Mar-24 13:28N 31°36' E 121°27'0 0.0
2017-Mar-24 12:28N 31°36' E 121°27'0 0.0
2017-Mar-24 11:33N 31°36' E 121°27'0 0.0
2017-Mar-24 10:33N 31°36' E 121°27'0 0.0
2017-Mar-24 09:33N 31°36' E 121°27'0 0.0
2017-Mar-24 08:33N 31°36' E 121°27'0 0.0
2017-Mar-24 07:33N 31°36' E 121°27'0 0.0
2017-Mar-24 06:33N 31°36' E 121°27'0 0.0
2017-Mar-24 05:33N 31°36' E 121°27'0 0.0
2017-Mar-24 04:33N 31°36' E 121°27'0 0.0
2017-Mar-24 03:33N 31°36' E 121°27'0 0.0
2017-Mar-24 02:33N 31°36' E 121°27'0 0.0
2017-Mar-24 01:33N 31°36' E 121°27'0 0.0
2017-Mar-24 00:33N 31°36' E 121°27'0 0.0
2017-Mar-23 23:33N 31°36' E 121°27'0 0.0
2017-Mar-23 22:33N 31°36' E 121°27'0 0.0
2017-Mar-23 21:33N 31°36' E 121°27'0 0.0
2017-Mar-23 20:33N 31°36' E 121°27'0 0.0
2017-Mar-23 19:33N 31°36' E 121°27'0 0.0
2017-Mar-23 18:33N 31°36' E 121°27'0 0.0
2017-Mar-23 17:33N 31°36' E 121°27'0 0.0
2017-Mar-23 16:33N 31°36' E 121°27'0 0.0
2017-Mar-23 15:33N 31°36' E 121°27'0 0.0
2017-Mar-23 14:33N 31°36' E 121°27'0 0.0
2017-Mar-23 13:33N 31°36' E 121°27'0 0.0
2017-Mar-23 12:33N 31°36' E 121°27'0 0.0
2017-Mar-23 11:33N 31°36' E 121°27'0 0.0
2017-Mar-23 10:33N 31°36' E 121°27'0 0.0
2017-Mar-23 09:33N 31°36' E 121°27'0 0.0
2017-Mar-23 08:33N 31°36' E 121°27'0 0.0
2017-Mar-23 07:33N 31°36' E 121°27'0 0.0
2017-Mar-23 06:33N 31°36' E 121°27'0 0.4
2017-Mar-23 05:33N 31°35' E 121°27'4 4.3
2017-Mar-23 04:33N 31°33' E 121°31'7 6.5
2017-Mar-23 03:33N 31°30' E 121°38'1010.3
2017-Mar-23 02:33N 31°30' E 121°26'9 9.4
2017-Mar-23 01:33N 31°24' E 121°34'1211.5
2017-Mar-23 00:33N 31°17' E 121°45'1312.8
2017-Mar-22 23:33N 31°08' E 121°55'1110.9
2017-Mar-22 22:33N 31°04' E 122°07'9 9.3
2017-Mar-22 21:33N 31°03' E 122°18'6 6.2
2017-Mar-22 20:33N 31°01' E 122°25'36 1.4
2017-Mar-21 18:26N 30°40' E 122°58'  
Track history (hours):
 
Tides and Currents Weather Stations Pressure Air Temp Water Temp Dewpoint Dewpoint Depression Visibility Wind Speed Wind Dir Waves Ship Positions

Nordic Harrier

Last reported at 2017-Mar-24 21:28 UTC. Time now 2017-Mar-26 23:08 UTC.
Position N 31°36' E 121°27'.

Length 274 m; draft 6.5 m.

Type: Ship. MMSI: 538004121.

Date/timePositionNaut miles runAvg speedWind from/ knotsBaromVisibWave heightAir tempDewpointWater temp
2017-Mar-24 21:28N 31°36' E 121°27'0 0.0
2017-Mar-24 20:31N 31°36' E 121°27'0 0.0
2017-Mar-24 19:28N 31°36' E 121°27'0 0.0
2017-Mar-24 18:28N 31°36' E 121°27'0 0.0
2017-Mar-24 17:28N 31°36' E 121°27'0 0.0
2017-Mar-24 16:28N 31°36' E 121°27'0 0.0
2017-Mar-24 15:28N 31°36' E 121°27'0 0.0
2017-Mar-24 14:28N 31°36' E 121°27'0 0.0
2017-Mar-24 13:28N 31°36' E 121°27'0 0.0
2017-Mar-24 12:28N 31°36' E 121°27'0 0.0
2017-Mar-24 11:33N 31°36' E 121°27'0 0.0
2017-Mar-24 10:33N 31°36' E 121°27'0 0.0
2017-Mar-24 09:33N 31°36' E 121°27'0 0.0
2017-Mar-24 08:33N 31°36' E 121°27'0 0.0
2017-Mar-24 07:33N 31°36' E 121°27'0 0.0
2017-Mar-24 06:33N 31°36' E 121°27'0 0.0
2017-Mar-24 05:33N 31°36' E 121°27'0 0.0
2017-Mar-24 04:33N 31°36' E 121°27'0 0.0
2017-Mar-24 03:33N 31°36' E 121°27'0 0.0
2017-Mar-24 02:33N 31°36' E 121°27'0 0.0
2017-Mar-24 01:33N 31°36' E 121°27'0 0.0
2017-Mar-24 00:33N 31°36' E 121°27'0 0.0
2017-Mar-23 23:33N 31°36' E 121°27'0 0.0
2017-Mar-23 22:33N 31°36' E 121°27'0 0.0
2017-Mar-23 21:33N 31°36' E 121°27'0 0.0
2017-Mar-23 20:33N 31°36' E 121°27'0 0.0
2017-Mar-23 19:33N 31°36' E 121°27'0 0.0
2017-Mar-23 18:33N 31°36' E 121°27'0 0.0
2017-Mar-23 17:33N 31°36' E 121°27'0 0.0
2017-Mar-23 16:33N 31°36' E 121°27'0 0.0
2017-Mar-23 15:33N 31°36' E 121°27'0 0.0
2017-Mar-23 14:33N 31°36' E 121°27'0 0.0
2017-Mar-23 13:33N 31°36' E 121°27'0 0.0
2017-Mar-23 12:33N 31°36' E 121°27'0 0.0
2017-Mar-23 11:33N 31°36' E 121°27'0 0.0
2017-Mar-23 10:33N 31°36' E 121°27'0 0.0
2017-Mar-23 09:33N 31°36' E 121°27'0 0.0
2017-Mar-23 08:33N 31°36' E 121°27'0 0.0
2017-Mar-23 07:33N 31°36' E 121°27'0 0.0
2017-Mar-23 06:33N 31°36' E 121°27'0 0.4
2017-Mar-23 05:33N 31°35' E 121°27'4 4.3
2017-Mar-23 04:33N 31°33' E 121°31'7 6.5
2017-Mar-23 03:33N 31°30' E 121°38'1010.3
2017-Mar-23 02:33N 31°30' E 121°26'9 9.4
2017-Mar-23 01:33N 31°24' E 121°34'1211.5
2017-Mar-23 00:33N 31°17' E 121°45'1312.8
2017-Mar-22 23:33N 31°08' E 121°55'1110.9
2017-Mar-22 22:33N 31°04' E 122°07'9 9.3
2017-Mar-22 21:33N 31°03' E 122°18'6 6.2
2017-Mar-22 20:33N 31°01' E 122°25'36 1.4
2017-Mar-21 18:26N 30°40' E 122°58'  

Dump ship's entire track history